createdAt,value
2019-02-17T00:00:31.392Z,10.53
2019-02-17T00:02:59.158Z,13.77
2019-02-17T00:05:26.935Z,11.60
2019-02-17T00:07:54.896Z,10.63
2019-02-17T00:10:22.676Z,11.30
2019-02-17T00:12:50.445Z,10.20
2019-02-17T00:15:18.210Z,12.80
2019-02-17T00:17:45.932Z,12.93
2019-02-17T00:20:13.680Z,12.83
2019-02-17T00:22:41.441Z,13.67
2019-02-17T00:25:09.175Z,13.37
2019-02-17T00:27:36.927Z,13.47
2019-02-17T00:30:04.907Z,12.90
2019-02-17T00:32:32.835Z,10.63
2019-02-17T00:35:00.569Z,11.83
2019-02-17T00:37:28.511Z,12.07
2019-02-17T00:39:56.263Z,11.77
2019-02-17T00:42:24.191Z,11.80
2019-02-17T00:44:52.095Z,11.40
2019-02-17T00:47:20.091Z,11.97
2019-02-17T00:49:47.867Z,16.67
2019-02-17T00:52:15.630Z,10.03
2019-02-17T00:54:43.365Z,13.60
2019-02-17T00:57:11.145Z,12.60
2019-02-17T00:59:38.920Z,13.10
2019-02-17T01:02:06.676Z,11.23
2019-02-17T01:04:34.429Z,13.87
2019-02-17T01:07:02.194Z,12.33
2019-02-17T01:09:30.119Z,9.77
2019-02-17T01:11:57.922Z,13.07
2019-02-17T01:14:25.685Z,10.57
2019-02-17T01:16:53.555Z,14.70
2019-02-17T01:19:24.294Z,13.50
2019-02-17T01:21:52.095Z,9.90
2019-02-17T01:24:20.006Z,12.67
2019-02-17T01:26:47.775Z,12.97
2019-02-17T01:29:20.548Z,12.07
2019-02-17T01:31:45.296Z,14.00
2019-02-17T01:34:13.346Z,15.43
2019-02-17T01:36:41.359Z,12.87
2019-02-17T01:39:09.127Z,10.47
2019-02-17T01:41:36.876Z,11.93
2019-02-17T01:44:04.874Z,14.27
2019-02-17T01:46:32.620Z,14.47
2019-02-17T01:49:00.399Z,15.40
2019-02-17T01:51:28.130Z,15.47
2019-02-17T01:53:55.903Z,11.57
2019-02-17T01:56:23.654Z,12.27
2019-02-17T01:58:51.437Z,14.70
2019-02-17T02:01:19.177Z,11.37
2019-02-17T02:03:46.953Z,15.23
2019-02-17T02:06:14.859Z,12.07
2019-02-17T02:08:42.649Z,11.27
2019-02-17T02:11:10.613Z,11.63
2019-02-17T02:13:38.391Z,12.67
2019-02-17T02:16:06.115Z,12.40
2019-02-17T02:18:34.073Z,12.83
2019-02-17T02:21:01.961Z,11.77
2019-02-17T02:23:29.693Z,10.27
2019-02-17T02:25:57.586Z,10.93
2019-02-17T02:28:25.351Z,10.63
2019-02-17T02:30:53.100Z,11.07
2019-02-17T02:33:20.864Z,10.73
2019-02-17T02:35:48.576Z,12.40
2019-02-17T02:38:16.380Z,11.40
2019-02-17T02:40:44.104Z,12.03
2019-02-17T02:43:11.856Z,11.07
2019-02-17T02:45:40.831Z,12.93
2019-02-17T02:48:08.601Z,14.20
2019-02-17T02:50:36.516Z,11.53
2019-02-17T02:53:04.273Z,13.50
2019-02-17T02:55:32.204Z,12.97
2019-02-17T02:57:59.929Z,11.53
2019-02-17T03:00:27.878Z,13.10
2019-02-17T03:02:55.641Z,11.10
2019-02-17T03:05:23.489Z,13.17
2019-02-17T03:07:51.246Z,13.60
2019-02-17T03:10:19.191Z,11.20
2019-02-17T03:12:47.011Z,11.10
2019-02-17T03:15:15.054Z,11.73
2019-02-17T03:17:42.814Z,11.57
2019-02-17T03:20:10.736Z,11.80
2019-02-17T03:22:38.455Z,13.77
2019-02-17T03:25:08.130Z,14.57
2019-02-17T03:27:35.877Z,11.63
2019-02-17T03:30:06.181Z,12.20
2019-02-17T03:32:34.320Z,11.80
2019-02-17T03:35:02.092Z,11.83
2019-02-17T03:37:30.075Z,12.37
2019-02-17T03:39:57.864Z,11.50
2019-02-17T03:42:25.912Z,12.90
2019-02-17T03:44:53.862Z,12.43
2019-02-17T03:47:21.626Z,12.90
2019-02-17T03:49:49.612Z,13.40
2019-02-17T03:52:17.519Z,13.60
2019-02-17T03:54:45.297Z,15.17
2019-02-17T03:57:13.239Z,15.37
2019-02-17T03:59:40.994Z,14.73
2019-02-17T04:02:08.937Z,12.97
2019-02-17T04:04:36.683Z,12.73
2019-02-17T04:07:04.635Z,12.83
2019-02-17T04:09:32.348Z,12.13
2019-02-17T04:12:00.333Z,11.60
2019-02-17T04:14:28.083Z,12.67
2019-02-17T04:16:55.833Z,13.73
2019-02-17T04:19:23.621Z,11.20
2019-02-17T04:21:51.709Z,14.07
2019-02-17T04:24:19.493Z,13.67
2019-02-17T04:26:53.810Z,18.03
2019-02-17T04:29:21.597Z,13.93
2019-02-17T04:31:49.669Z,15.50
2019-02-17T04:34:17.403Z,15.70
2019-02-17T04:36:45.329Z,12.63
2019-02-17T04:39:13.055Z,14.40
2019-02-17T04:41:40.843Z,12.03
2019-02-17T04:44:08.666Z,13.40
2019-02-17T04:46:36.459Z,13.07
2019-02-17T04:49:04.233Z,13.73
2019-02-17T04:51:32.190Z,13.47
2019-02-17T04:53:59.878Z,12.67
2019-02-17T04:56:27.839Z,16.67
2019-02-17T04:58:55.569Z,19.23
2019-02-17T05:01:23.331Z,13.63
2019-02-17T05:03:51.056Z,15.53
2019-02-17T05:06:18.845Z,12.03
2019-02-17T05:08:46.757Z,13.80
2019-02-17T05:11:14.530Z,13.87
2019-02-17T05:13:42.280Z,16.53
2019-02-17T05:16:10.083Z,13.87
2019-02-17T05:18:37.839Z,13.73
2019-02-17T05:21:05.758Z,13.70
2019-02-17T05:23:33.720Z,14.83
2019-02-17T05:26:01.621Z,14.93
2019-02-17T05:28:29.386Z,14.07
2019-02-17T05:30:57.186Z,14.93
2019-02-17T05:33:25.214Z,13.70
2019-02-17T05:35:52.991Z,15.17
2019-02-17T05:38:20.942Z,15.93
2019-02-17T05:40:48.734Z,14.63
2019-02-17T05:43:16.515Z,17.17
2019-02-17T05:45:44.285Z,17.10
2019-02-17T05:48:12.242Z,16.83
2019-02-17T05:50:39.991Z,13.97
2019-02-17T05:53:07.947Z,17.07
2019-02-17T05:55:35.731Z,15.20
2019-02-17T05:58:03.506Z,15.83
2019-02-17T06:00:32.984Z,14.80
2019-02-17T06:03:00.858Z,14.87
2019-02-17T06:05:28.629Z,16.27
2019-02-17T06:07:56.566Z,15.47
2019-02-17T06:10:24.338Z,16.40
2019-02-17T06:12:52.156Z,15.10
2019-02-17T06:15:19.937Z,17.83
2019-02-17T06:17:47.758Z,15.07
2019-02-17T06:20:15.528Z,17.33
2019-02-17T06:22:43.488Z,15.67
2019-02-17T06:25:11.264Z,18.77
2019-02-17T06:27:39.063Z,16.97
2019-02-17T06:30:07.164Z,15.63
2019-02-17T06:32:35.201Z,18.33
2019-02-17T06:35:03.002Z,15.87
2019-02-17T06:37:30.935Z,15.37
2019-02-17T06:39:58.919Z,14.90
2019-02-17T06:42:26.642Z,14.47
2019-02-17T06:44:54.491Z,16.00
2019-02-17T06:47:26.250Z,13.90
2019-02-17T06:49:54.198Z,14.47
2019-02-17T06:52:22.247Z,16.43
2019-02-17T06:55:15.755Z,16.43
2019-02-17T06:57:43.563Z,19.53
2019-02-17T07:00:39.962Z,14.93
2019-02-17T07:03:07.731Z,17.87
2019-02-17T07:05:56.738Z,16.43
2019-02-17T07:08:24.932Z,14.90
2019-02-17T07:10:52.677Z,17.53
2019-02-17T07:13:20.429Z,19.47
2019-02-17T07:15:48.228Z,19.40
2019-02-17T07:18:15.947Z,16.20
2019-02-17T07:20:43.886Z,16.80
2019-02-17T07:23:11.811Z,17.13
2019-02-17T07:25:39.739Z,19.03
2019-02-17T07:28:07.489Z,18.63
2019-02-17T07:30:35.271Z,18.77
2019-02-17T07:33:03.125Z,18.47
2019-02-17T07:35:31.119Z,18.10
2019-02-17T07:37:59.040Z,19.33
2019-02-17T07:40:26.907Z,19.37
2019-02-17T07:42:54.736Z,24.20
2019-02-17T07:45:22.668Z,23.23
2019-02-17T07:47:50.576Z,20.97
2019-02-17T07:50:18.572Z,19.67
2019-02-17T07:52:46.385Z,21.33
2019-02-17T07:55:14.193Z,18.00
2019-02-17T07:57:42.015Z,19.13
2019-02-17T08:00:09.856Z,18.87
2019-02-17T08:02:37.645Z,23.10
2019-02-17T08:05:07.456Z,21.07
2019-02-17T08:07:35.302Z,23.27
2019-02-17T08:10:03.501Z,22.97
2019-02-17T08:12:31.363Z,20.43
2019-02-17T08:14:59.357Z,22.10
2019-02-17T08:17:27.128Z,22.93
2019-02-17T08:19:54.918Z,21.57
2019-02-17T08:22:22.703Z,24.93
2019-02-17T08:24:50.456Z,21.57
2019-02-17T08:27:18.225Z,25.03
2019-02-17T08:29:46.015Z,22.90
2019-02-17T08:32:13.804Z,24.87
2019-02-17T08:34:41.551Z,23.30
2019-02-17T08:37:09.335Z,22.20
2019-02-17T08:39:37.118Z,23.20
2019-02-17T08:42:05.077Z,22.33
2019-02-17T08:44:32.841Z,24.00
2019-02-17T08:47:00.669Z,21.77
2019-02-17T08:49:28.425Z,23.20
2019-02-17T08:51:56.263Z,21.73
2019-02-17T08:54:24.033Z,22.90
2019-02-17T08:56:51.842Z,19.80
2019-02-17T08:59:19.598Z,19.23
2019-02-17T09:01:47.391Z,22.23
2019-02-17T09:04:15.317Z,21.30
2019-02-17T09:06:43.347Z,22.33
2019-02-17T09:09:11.107Z,25.67
2019-02-17T09:11:38.885Z,21.07
2019-02-17T09:14:06.649Z,21.53
2019-02-17T09:16:34.551Z,25.87
2019-02-17T09:19:02.320Z,23.60
2019-02-17T09:21:30.548Z,22.27
2019-02-17T09:23:58.343Z,24.10
2019-02-17T09:26:26.275Z,22.20
2019-02-17T09:28:54.113Z,20.97
2019-02-17T09:31:21.974Z,21.53
2019-02-17T09:33:49.860Z,22.43
2019-02-17T09:36:17.629Z,21.73
2019-02-17T09:38:45.465Z,21.00
2019-02-17T09:41:13.333Z,21.27
2019-02-17T09:43:41.105Z,22.73
2019-02-17T09:46:09.068Z,21.23
2019-02-17T09:48:36.912Z,24.40
2019-02-17T09:51:04.699Z,23.47
2019-02-17T09:53:32.465Z,20.33
2019-02-17T09:56:00.302Z,22.90
2019-02-17T09:58:28.073Z,25.87
2019-02-17T10:00:55.862Z,21.37
2019-02-17T10:03:23.626Z,21.77
2019-02-17T10:05:51.400Z,23.70
2019-02-17T10:08:19.152Z,25.17
2019-02-17T10:10:47.053Z,27.10
2019-02-17T10:13:14.842Z,20.83
2019-02-17T10:15:43.105Z,24.73
2019-02-17T10:18:10.893Z,23.73
2019-02-17T10:20:38.707Z,25.17
2019-02-17T10:23:06.518Z,22.07
2019-02-17T10:25:34.255Z,21.93
2019-02-17T10:28:02.032Z,22.73
2019-02-17T10:31:09.220Z,22.97
2019-02-17T10:33:37.109Z,22.87
2019-02-17T10:36:04.877Z,22.13
2019-02-17T10:38:32.692Z,21.93
2019-02-17T10:41:00.444Z,23.43
2019-02-17T10:43:28.251Z,24.50
2019-02-17T10:45:56.012Z,24.87
2019-02-17T10:48:23.772Z,25.00
2019-02-17T10:50:51.553Z,23.17
2019-02-17T10:53:19.337Z,23.57
2019-02-17T10:55:47.083Z,24.50
2019-02-17T10:58:14.930Z,23.93
2019-02-17T11:00:42.883Z,23.07
2019-02-17T11:03:10.745Z,23.23
2019-02-17T11:05:38.507Z,22.30
2019-02-17T11:08:06.303Z,22.83
2019-02-17T11:10:34.114Z,24.77
2019-02-17T11:13:02.727Z,23.70
2019-02-17T11:15:31.235Z,24.03
2019-02-17T11:17:59.010Z,23.97
2019-02-17T11:20:26.827Z,22.67
2019-02-17T11:22:54.570Z,22.80
2019-02-17T11:25:22.371Z,23.33
2019-02-17T11:27:50.134Z,23.93
2019-02-17T11:30:18.003Z,22.93
2019-02-17T11:32:45.759Z,24.60
2019-02-17T11:35:13.737Z,21.13
2019-02-17T11:37:41.533Z,26.13
2019-02-17T11:40:10.390Z,21.93
2019-02-17T11:42:38.234Z,25.63
2019-02-17T11:45:08.791Z,23.00
2019-02-17T11:47:36.661Z,24.37
2019-02-17T11:50:04.969Z,23.63
2019-02-17T11:52:32.750Z,23.37
2019-02-17T11:55:00.623Z,21.90
2019-02-17T11:57:28.416Z,21.10
2019-02-17T11:59:56.316Z,22.97
2019-02-17T12:02:25.267Z,21.70
2019-02-17T12:04:53.298Z,24.87
2019-02-17T12:07:21.088Z,21.73
2019-02-17T12:09:49.006Z,25.47
2019-02-17T12:12:16.869Z,20.57
2019-02-17T12:14:44.644Z,23.30
2019-02-17T12:17:12.444Z,23.40
2019-02-17T12:19:40.226Z,22.87
2019-02-17T12:22:23.583Z,24.25
2019-02-17T12:25:00.251Z,21.52
2019-02-17T12:27:32.664Z,20.97
2019-02-17T12:30:04.513Z,23.98
2019-02-17T12:32:32.329Z,23.55
2019-02-17T12:35:00.214Z,22.43
2019-02-17T12:37:28.053Z,23.37
2019-02-17T12:39:55.843Z,23.10
2019-02-17T12:42:23.639Z,25.63
2019-02-17T12:44:51.443Z,24.50
2019-02-17T12:47:19.239Z,26.80
2019-02-17T12:49:47.013Z,21.00
2019-02-17T12:52:14.799Z,20.57
2019-02-17T12:54:42.592Z,20.90
2019-02-17T12:57:10.429Z,23.60
2019-02-17T12:59:39.011Z,24.80
2019-02-17T13:02:06.835Z,21.63
2019-02-17T13:04:34.590Z,19.40
2019-02-17T13:07:02.683Z,22.23
2019-02-17T13:09:30.607Z,22.70
2019-02-17T13:11:58.499Z,18.97
2019-02-17T13:14:26.337Z,22.43
2019-02-17T13:16:54.123Z,19.83
2019-02-17T13:19:21.888Z,22.73
2019-02-17T13:21:49.777Z,19.60
2019-02-17T13:24:17.586Z,20.07
2019-02-17T13:26:45.381Z,23.57
2019-02-17T13:29:13.182Z,19.17
2019-02-17T13:31:40.962Z,19.57
2019-02-17T13:34:08.747Z,19.03
2019-02-17T13:36:36.551Z,21.77
2019-02-17T13:39:06.243Z,21.97
2019-02-17T13:41:34.012Z,21.80
2019-02-17T13:44:02.086Z,22.87
2019-02-17T13:46:29.907Z,19.63
2019-02-17T13:48:57.746Z,22.60
2019-02-17T13:51:25.791Z,22.70
2019-02-17T13:53:53.735Z,17.47
2019-02-17T13:56:21.520Z,21.20
2019-02-17T13:58:50.121Z,21.70
2019-02-17T14:01:17.969Z,21.50
2019-02-17T14:03:48.758Z,19.77
2019-02-17T14:06:15.568Z,24.03
2019-02-17T14:08:43.375Z,22.23
2019-02-17T14:11:11.156Z,20.23
2019-02-17T14:13:39.053Z,21.33
2019-02-17T14:16:06.814Z,22.20
2019-02-17T14:18:34.675Z,17.20
2019-02-17T14:21:02.508Z,20.40
2019-02-17T14:23:30.314Z,20.60
2019-02-17T14:25:58.088Z,18.33
2019-02-17T14:28:25.979Z,19.70
2019-02-17T14:30:53.789Z,18.10
2019-02-17T14:33:21.584Z,17.60
2019-02-17T14:35:49.437Z,13.93
2019-02-17T14:38:17.214Z,16.83
2019-02-17T14:40:45.045Z,16.33
2019-02-17T14:43:12.873Z,24.60
2019-02-17T14:45:40.759Z,22.22
2019-02-17T14:48:08.501Z,20.72
2019-02-17T14:50:36.317Z,21.50
2019-02-17T14:53:04.081Z,18.25
2019-02-17T14:55:31.843Z,23.33
2019-02-17T14:58:05.589Z,22.10
2019-02-17T15:00:29.371Z,22.87
2019-02-17T15:02:57.177Z,22.80
2019-02-17T15:05:24.946Z,25.93
2019-02-17T15:07:52.692Z,23.83
2019-02-17T15:10:20.516Z,25.10
2019-02-17T15:12:48.315Z,21.17
2019-02-17T15:15:16.138Z,23.80
2019-02-17T15:17:43.931Z,22.23
2019-02-17T15:20:12.078Z,20.90
2019-02-17T15:22:39.907Z,19.97
2019-02-17T15:25:11.221Z,23.40
2019-02-17T15:27:38.961Z,22.03
2019-02-17T15:30:09.553Z,22.47
2019-02-17T15:32:37.363Z,23.37
2019-02-17T15:35:05.494Z,21.70
2019-02-17T15:37:33.295Z,22.60
2019-02-17T15:40:01.108Z,23.93
2019-02-17T15:42:28.901Z,24.90
2019-02-17T15:44:56.675Z,23.30
2019-02-17T15:47:24.464Z,24.87
2019-02-17T15:49:52.257Z,20.27
2019-02-17T15:52:20.155Z,21.73
2019-02-17T15:54:48.020Z,22.97
2019-02-17T15:57:15.784Z,25.77
2019-02-17T15:59:43.576Z,21.93
2019-02-17T16:02:11.318Z,26.77
2019-02-17T16:04:39.134Z,24.37
2019-02-17T16:07:07.028Z,31.07
2019-02-17T16:09:34.961Z,23.43
2019-02-17T16:12:02.784Z,28.20
2019-02-17T16:14:30.979Z,28.73
2019-02-17T16:16:58.768Z,28.40
2019-02-17T16:19:26.569Z,28.67
2019-02-17T16:21:54.334Z,28.23
2019-02-17T16:24:22.088Z,27.40
2019-02-17T16:26:49.871Z,31.03
2019-02-17T16:29:17.665Z,24.23
2019-02-17T16:31:45.494Z,25.73
2019-02-17T16:34:13.288Z,29.03
2019-02-17T16:36:41.082Z,27.17
2019-02-17T16:39:11.985Z,27.80
2019-02-17T16:41:39.798Z,26.23
2019-02-17T16:44:07.606Z,25.90
2019-02-17T16:46:35.390Z,27.57
2019-02-17T16:49:03.694Z,28.23
2019-02-17T16:51:31.519Z,27.50
2019-02-17T16:53:59.345Z,27.07
2019-02-17T16:56:27.155Z,27.13
2019-02-17T16:58:54.983Z,26.07
2019-02-17T17:01:22.819Z,29.03
2019-02-17T17:03:50.587Z,26.90
2019-02-17T17:06:18.469Z,28.87
2019-02-17T17:08:46.277Z,27.73
2019-02-17T17:11:14.087Z,28.60
2019-02-17T17:13:41.893Z,29.13
2019-02-17T17:16:09.661Z,29.87
2019-02-17T17:18:37.435Z,28.63
2019-02-17T17:21:05.339Z,28.80
2019-02-17T17:23:33.382Z,30.40
2019-02-17T17:26:01.153Z,28.30
2019-02-17T17:28:28.929Z,32.20
2019-02-17T17:30:56.737Z,31.73
2019-02-17T17:33:24.609Z,33.70
2019-02-17T17:35:52.402Z,29.77
2019-02-17T17:38:20.929Z,36.20
2019-02-17T17:40:48.888Z,30.63
2019-02-17T17:43:16.668Z,31.53
2019-02-17T17:45:44.471Z,35.93
2019-02-17T17:48:12.256Z,33.53
2019-02-17T17:50:40.064Z,36.27
2019-02-17T17:53:07.974Z,34.93
2019-02-17T17:55:35.729Z,32.70
2019-02-17T17:58:03.511Z,33.70
2019-02-17T18:00:32.989Z,38.30
2019-02-17T18:03:00.745Z,36.17
2019-02-17T18:05:28.554Z,32.20
2019-02-17T18:07:56.331Z,32.77
2019-02-17T18:10:25.373Z,35.87
2019-02-17T18:12:53.112Z,32.60
2019-02-17T18:15:21.104Z,34.73
2019-02-17T18:17:54.703Z,33.67
2019-02-17T18:20:18.648Z,30.93
2019-02-17T18:22:46.488Z,35.97
2019-02-17T18:25:14.566Z,30.33
2019-02-17T18:27:42.325Z,32.30
2019-02-17T18:30:12.022Z,25.73
2019-02-17T18:32:39.915Z,24.20
2019-02-17T18:35:08.246Z,20.90
2019-02-17T18:37:36.098Z,17.60
2019-02-17T18:40:04.401Z,18.07
2019-02-17T18:42:32.186Z,18.20
2019-02-17T18:44:59.992Z,18.37
2019-02-17T18:47:27.751Z,17.80
2019-02-17T18:49:55.557Z,18.07
2019-02-17T18:52:23.322Z,13.63
2019-02-17T18:54:51.134Z,14.93
2019-02-17T18:57:18.926Z,13.93
2019-02-17T18:59:46.747Z,15.70
2019-02-17T19:02:14.580Z,13.97
2019-02-17T19:04:42.369Z,16.33
2019-02-17T19:07:10.181Z,14.60
2019-02-17T19:09:38.012Z,13.83
2019-02-17T19:12:05.811Z,14.73
2019-02-17T19:14:33.605Z,14.63
2019-02-17T19:17:02.189Z,13.53
2019-02-17T19:19:29.984Z,12.40
2019-02-17T19:21:57.813Z,14.60
2019-02-17T19:24:25.868Z,13.20
2019-02-17T19:26:53.704Z,12.23
2019-02-17T19:29:21.488Z,12.43
2019-02-17T19:31:49.277Z,14.90
2019-02-17T19:34:17.092Z,14.43
2019-02-17T19:36:44.964Z,12.53
2019-02-17T19:39:12.837Z,13.20
2019-02-17T19:41:40.636Z,13.53
2019-02-17T19:44:08.414Z,14.50
2019-02-17T19:46:36.196Z,12.90
2019-02-17T19:49:03.963Z,13.37
2019-02-17T19:51:31.710Z,13.07
2019-02-17T19:53:59.494Z,12.60
2019-02-17T19:56:27.266Z,13.33
2019-02-17T19:58:55.049Z,12.60
2019-02-17T20:01:22.842Z,12.20
2019-02-17T20:03:56.297Z,11.93
2019-02-17T20:06:25.194Z,12.87
2019-02-17T20:08:52.985Z,13.17
2019-02-17T20:11:20.784Z,13.83
2019-02-17T20:13:48.592Z,13.00
2019-02-17T20:22:37.664Z,15.10
2019-02-17T20:25:24.934Z,14.93
2019-02-17T20:28:42.762Z,14.23
2019-02-17T20:31:13.926Z,16.07
2019-02-17T20:37:51.145Z,13.87
2019-02-17T20:53:18.073Z,16.00
2019-02-17T20:56:05.553Z,14.80
2019-02-17T20:58:45.857Z,15.63
2019-02-17T21:02:28.924Z,17.03
2019-02-17T21:05:13.937Z,16.30
2019-02-17T21:07:54.024Z,13.67
2019-02-17T21:10:41.276Z,13.67
2019-02-17T21:13:21.951Z,15.43
2019-02-17T21:19:00.856Z,17.13
2019-02-17T21:21:48.299Z,14.33
2019-02-17T21:24:28.901Z,14.83
2019-02-17T21:27:16.145Z,13.67
2019-02-17T21:29:56.832Z,14.90
2019-02-17T21:32:44.070Z,17.33
2019-02-17T21:35:24.092Z,17.90
2019-02-17T21:38:11.327Z,14.47
2019-02-17T21:40:51.258Z,15.73
2019-02-17T21:43:38.485Z,15.87
2019-02-17T21:46:18.438Z,17.10
2019-02-17T21:49:05.665Z,17.40
2019-02-17T21:51:45.705Z,16.40
2019-02-17T21:54:32.913Z,16.50
2019-02-17T21:57:13.413Z,17.60
2019-02-17T22:00:00.626Z,18.80
2019-02-17T22:02:47.952Z,15.90
2019-02-17T22:05:28.745Z,16.70
2019-02-17T22:08:09.589Z,15.27
2019-02-17T22:10:56.804Z,19.73
2019-02-17T22:13:35.208Z,14.63
2019-02-17T22:16:15.551Z,17.80
2019-02-17T22:19:02.794Z,16.57
2019-02-17T22:21:43.157Z,16.33
2019-02-17T22:24:30.374Z,17.67
2019-02-17T22:27:11.322Z,17.73
2019-02-17T22:29:58.550Z,20.90
2019-02-17T22:32:39.298Z,17.03
2019-02-17T22:35:26.516Z,17.03
2019-02-17T22:38:07.028Z,17.33
2019-02-17T22:40:54.486Z,15.03
2019-02-17T22:43:35.298Z,14.77
2019-02-17T22:46:22.923Z,16.10
2019-02-17T22:52:29.561Z,17.47
2019-02-17T22:56:03.608Z,15.93
2019-02-17T22:58:43.896Z,14.23
2019-02-17T23:01:32.328Z,15.57
2019-02-17T23:04:13.117Z,15.60
2019-02-17T23:07:37.669Z,15.40
2019-02-17T23:10:20.843Z,16.00
2019-02-17T23:13:08.213Z,16.50
2019-02-17T23:19:01.236Z,15.70
2019-02-17T23:24:44.316Z,14.33
2019-02-17T23:27:31.554Z,17.17
2019-02-17T23:30:12.328Z,17.87
2019-02-17T23:33:36.905Z,16.17
2019-02-17T23:36:17.730Z,15.00
2019-02-17T23:39:18.684Z,15.10
2019-02-17T23:42:06.269Z,18.20
2019-02-17T23:44:47.246Z,16.07
2019-02-17T23:47:34.683Z,17.03
2019-02-17T23:50:22.933Z,13.50
2019-02-17T23:53:10.161Z,17.10
2019-02-17T23:55:51.504Z,15.63
2019-02-17T23:58:38.928Z,15.40
